Time;durP1;ratioP1;P1;durP2;ratioP2;P2;SDS_P1;SDS_P2;PMS_P1;PMS_P2;Temp;Humidity;BMP_temperature;BMP_pressure;BME280_temperature;BME280_humidity;BME280_pressure;Samples;Min_cycle;Max_cycle;Signal;HPM_P1;HPM_P2
2022/01/29 00:00:34;;;;;;;17.75;9.40;;;;;;;0.13;98.12;100737.88;5012030;28;20050;-82
2022/01/29 00:03:00;;;;;;;16.25;7.93;;;;;;;0.15;98.70;100748.16;4995361;28;20113;-82
2022/01/29 00:05:25;;;;;;;19.92;8.65;;;;;;;0.12;99.25;100737.84;5011323;28;20164;-82
2022/01/29 00:07:51;;;;;;;14.55;7.40;;;;;;;0.08;99.31;100723.28;4994049;28;20030;-82
2022/01/29 00:10:16;;;;;;;16.42;7.63;;;;;;;0.13;100.00;100737.88;5010925;28;20034;-82
2022/01/29 00:12:42;;;;;;;17.38;7.93;;;;;;;-0.08;100.00;100705.16;4994665;28;20058;-82
2022/01/29 00:15:08;;;;;;;19.63;7.75;;;;;;;0.04;100.00;100713.84;4994207;28;20053;-82
2022/01/29 00:17:33;;;;;;;13.85;6.78;;;;;;;0.13;100.00;100726.78;4994269;28;20073;-82
2022/01/29 00:19:59;;;;;;;16.42;8.70;;;;;;;0.14;100.00;100737.03;4994068;28;20450;-82
2022/01/29 00:22:25;;;;;;;13.15;6.63;;;;;;;0.07;100.00;100721.56;5020615;28;20037;-82
2022/01/29 00:24:50;;;;;;;13.00;7.15;;;;;;;0.12;100.00;100736.16;5032940;28;20025;-82
2022/01/29 00:27:18;;;;;;;15.95;6.72;;;;;;;0.10;100.00;100721.63;5031522;28;20040;-82
2022/01/29 00:29:43;;;;;;;18.20;7.38;;;;;;;-0.08;100.00;100692.38;5031619;28;20036;-82
2022/01/29 00:32:10;;;;;;;13.23;5.45;;;;;;;0.06;100.00;100720.72;5031193;28;20021;-82
2022/01/29 00:34:35;;;;;;;15.82;7.50;;;;;;;-0.01;100.00;100712.06;5031496;28;20129;-82
2022/01/29 00:37:01;;;;;;;18.67;6.95;;;;;;;0.10;100.00;100724.19;5030849;28;20475;-82
2022/01/29 00:39:27;;;;;;;13.95;7.43;;;;;;;-0.03;100.00;100713.75;5031635;28;20038;-82
2022/01/29 00:41:52;;;;;;;14.95;5.95;;;;;;;0.03;100.00;100722.38;5031167;28;20025;-82
2022/01/29 00:44:18;;;;;;;16.65;7.05;;;;;;;0.01;100.00;100724.91;5031373;28;20120;-82
2022/01/29 00:46:43;;;;;;;18.35;7.20;;;;;;;-0.10;100.00;100700.84;5031363;28;20029;-82
2022/01/29 00:49:09;;;;;;;23.63;9.45;;;;;;;-0.01;100.00;100714.63;5032559;28;20037;-82
2022/01/29 00:51:36;;;;;;;44.28;20.50;;;;;;;-0.03;100.00;100703.53;5031157;28;20025;-82
2022/01/29 00:54:01;;;;;;;39.17;16.08;;;;;;;0.03;100.00;100704.44;5031024;28;20465;-82
2022/01/29 00:56:27;;;;;;;37.22;16.02;;;;;;;-0.01;100.00;100703.53;5032539;28;20022;-82
2022/01/29 00:58:52;;;;;;;34.00;12.07;;;;;;;-0.10;100.00;100683.78;5030966;28;20427;-82
2022/01/29 01:01:17;;;;;;;31.33;11.95;;;;;;;-0.07;100.00;100686.41;5031017;28;20024;-82
2022/01/29 01:03:43;;;;;;;34.45;13.50;;;;;;;-0.12;100.00;100674.38;5032419;28;20030;-82
2022/01/29 01:06:08;;;;;;;26.50;10.90;;;;;;;-0.05;100.00;100691.53;4991379;28;1145489;-82
2022/01/29 01:08:33;;;;;;;22.83;9.13;;;;;;;-0.06;100.00;100685.53;5031956;28;20029;-82
2022/01/29 01:10:59;;;;;;;16.75;7.55;;;;;;;-0.08;100.00;100683.81;5031361;28;20025;-82
2022/01/29 01:13:25;;;;;;;19.63;7.72;;;;;;;-0.18;100.00;100675.13;5031624;28;20033;-82
2022/01/29 01:15:50;;;;;;;18.23;8.02;;;;;;;-0.22;100.00;100682.75;5031456;28;20427;-82
2022/01/29 01:18:16;;;;;;;19.88;7.75;;;;;;;-0.20;100.00;100687.06;5033166;28;20083;-82
2022/01/29 01:20:41;;;;;;;18.05;7.25;;;;;;;-0.29;100.00;100669.03;5031016;28;20044;-82
2022/01/29 01:23:07;;;;;;;19.50;7.22;;;;;;;-0.22;100.00;100680.19;5031330;28;20036;-82
2022/01/29 01:25:32;;;;;;;16.70;7.57;;;;;;;-0.27;100.00;100675.88;5031813;28;20116;-82
2022/01/29 01:27:57;;;;;;;19.58;7.88;;;;;;;-0.30;100.00;100677.53;5031326;28;20029;-82
2022/01/29 01:30:23;;;;;;;14.98;6.22;;;;;;;-0.41;100.00;100656.91;5031482;28;20021;-82
2022/01/29 01:32:49;;;;;;;19.88;6.63;;;;;;;-0.31;100.00;100676.66;5031449;28;20033;-82
2022/01/29 01:35:21;;;;;;;16.65;6.32;;;;;;;-0.37;100.00;100663.81;5032364;28;20029;-82
2022/01/29 01:37:52;;;;;;;16.35;5.88;;;;;;;-0.33;100.00;100673.25;5031269;28;20477;-82
2022/01/29 01:40:19;;;;;;;14.95;5.80;;;;;;;-0.26;100.00;100669.91;5032831;28;20475;-82
2022/01/29 01:42:45;;;;;;;14.60;5.85;;;;;;;-0.38;100.00;100649.28;5032488;28;20068;-82
2022/01/29 01:45:10;;;;;;;19.40;5.50;;;;;;;-0.25;100.00;100665.69;5030901;28;20561;-82
2022/01/29 01:47:36;;;;;;;19.02;6.47;;;;;;;-0.24;100.00;100658.84;5031098;28;20026;-82
2022/01/29 01:50:03;;;;;;;15.85;5.10;;;;;;;-0.24;100.00;100646.06;5031905;28;20033;-82
2022/01/29 01:52:29;;;;;;;18.92;5.63;;;;;;;-0.28;100.00;100637.47;5032455;28;20477;-82
2022/01/29 01:54:54;;;;;;;16.35;5.50;;;;;;;-0.18;100.00;100648.69;5030820;28;20028;-82
2022/01/29 01:57:19;;;;;;;23.50;6.10;;;;;;;-0.15;100.00;100646.16;5032332;28;20480;-82
2022/01/29 01:59:45;;;;;;;21.23;5.88;;;;;;;-0.11;100.00;100645.38;5032144;28;20037;-82
2022/01/29 02:02:10;;;;;;;21.13;6.40;;;;;;;-0.08;100.00;100635.16;5030568;28;20036;-82
2022/01/29 02:04:37;;;;;;;19.48;5.65;;;;;;;-0.06;100.00;100626.66;5030054;28;20481;-82
2022/01/29 02:07:04;;;;;;;23.48;6.85;;;;;;;0.01;100.00;100635.28;4994419;28;20393;-82
2022/01/29 02:09:31;;;;;;;16.92;6.65;;;;;;;-0.07;100.00;100622.38;4994878;28;20030;-82
2022/01/29 02:11:58;;;;;;;14.32;5.53;;;;;;;-0.04;100.00;100619.84;4994466;28;20037;-82
2022/01/29 02:14:29;;;;;;;20.17;6.07;;;;;;;-0.02;100.00;100622.44;4994630;28;20046;-82
2022/01/29 02:16:54;;;;;;;23.67;6.53;;;;;;;0.07;100.00;100625.09;4994283;28;20026;-82
2022/01/29 02:19:20;;;;;;;18.90;5.72;;;;;;;0.00;100.00;100605.38;5012411;28;20037;-82
2022/01/29 02:21:45;;;;;;;18.38;6.47;;;;;;;0.05;100.00;100602.88;5012568;28;20042;-82
2022/01/29 02:24:11;;;;;;;15.75;6.00;;;;;;;0.01;100.00;100593.44;4994466;28;20025;-82
2022/01/29 02:26:37;;;;;;;18.27;5.90;;;;;;;0.12;100.00;100612.34;4994460;28;20037;-82
2022/01/29 02:29:03;;;;;;;21.30;5.55;;;;;;;-0.03;100.00;100574.63;5012174;28;20038;-82
2022/01/29 02:31:29;;;;;;;24.88;6.47;;;;;;;0.08;100.00;100600.31;4993525;28;20060;-82
2022/01/29 02:33:54;;;;;;;19.85;6.35;;;;;;;0.03;100.00;100584.91;5011625;28;20451;-82
2022/01/29 02:36:20;;;;;;;29.23;7.18;;;;;;;0.11;100.00;100592.69;5012417;28;20034;-82
2022/01/29 02:38:45;;;;;;;19.13;7.22;;;;;;;-0.07;100.00;100567.75;4994713;28;20036;-82
2022/01/29 02:41:11;;;;;;;22.17;6.90;;;;;;;0.06;100.00;100594.34;4994424;28;20418;-82
2022/01/29 02:43:45;;;;;;;19.52;7.15;;;;;;;-0.01;100.00;100584.00;4994552;28;20018;-82
2022/01/29 02:48:45;;;;;;;24.15;7.28;;;;;;;-0.04;100.00;100578.88;5011845;28;20077;-82
2022/01/29 02:51:11;;;;;;;20.70;5.95;;;;;;;-0.08;100.00;100558.34;5011980;28;20041;-82
2022/01/29 02:53:36;;;;;;;17.80;5.97;;;;;;;-0.02;100.00;100576.31;4994186;28;20366;-82
2022/01/29 02:56:01;;;;;;;21.77;5.88;;;;;;;-0.06;100.00;100562.63;4994183;28;20026;-82
2022/01/29 02:58:27;;;;;;;20.63;6.22;;;;;;;-0.08;100.00;100564.31;5011836;28;20030;-82
2022/01/29 03:00:52;;;;;;;19.83;6.75;;;;;;;-0.07;100.00;100570.31;4994015;28;20412;-82
2022/01/29 03:03:18;;;;;;;17.63;5.38;;;;;;;-0.12;100.00;100561.72;5011730;28;20022;-82
2022/01/29 03:05:43;;;;;;;23.35;6.70;;;;;;;-0.13;100.00;100557.41;5011703;28;20050;-82
2022/01/29 03:08:09;;;;;;;23.38;7.40;;;;;;;-0.06;100.00;100577.13;5011704;28;20026;-82
2022/01/29 03:10:34;;;;;;;15.98;6.57;;;;;;;-0.11;100.00;100571.97;5011633;28;20096;-82
2022/01/29 03:13:00;;;;;;;22.85;6.85;;;;;;;-0.16;100.00;100553.13;4993916;28;20124;-82
2022/01/29 03:15:26;;;;;;;19.90;5.45;;;;;;;-0.05;100.00;100556.66;5011665;28;20026;-82
2022/01/29 03:17:51;;;;;;;18.00;6.38;;;;;;;-0.10;100.00;100552.34;4994086;28;20028;-82
2022/01/29 03:20:16;;;;;;;17.83;6.15;;;;;;;-0.20;100.00;100532.59;5011619;28;20034;-82
2022/01/29 03:22:42;;;;;;;24.83;6.85;;;;;;;-0.01;100.00;100555.00;4994112;28;20373;-82
2022/01/29 03:25:09;;;;;;;16.88;5.60;;;;;;;-0.11;100.00;100535.25;4993847;28;20045;-82
2022/01/29 03:27:34;;;;;;;26.17;6.53;;;;;;;-0.05;100.00;100540.44;5011551;28;20037;-82
2022/01/29 03:30:00;;;;;;;19.58;5.90;;;;;;;-0.02;100.00;100543.88;4993658;28;20033;-82
2022/01/29 03:32:26;;;;;;;19.10;6.55;;;;;;;-0.10;100.00;100531.84;5011567;28;20030;-81
2022/01/29 03:34:51;;;;;;;17.35;5.93;;;;;;;0.00;100.00;100541.38;4993759;28;20110;-82
2022/01/29 03:37:17;;;;;;;15.07;5.55;;;;;;;-0.01;100.00;100537.06;5011299;28;20065;-82
2022/01/29 03:39:44;;;;;;;18.30;5.43;;;;;;;-0.04;100.00;100521.69;4993920;28;20034;-82
2022/01/29 03:42:11;;;;;;;13.38;5.72;;;;;;;0.01;100.00;100530.28;4993915;28;20026;-81
2022/01/29 03:44:37;;;;;;;21.50;6.78;;;;;;;0.01;100.00;100537.09;4997172;28;20030;-82
2022/01/29 03:47:02;;;;;;;24.27;5.82;;;;;;;0.01;100.00;100526.84;4997339;28;20029;-82
2022/01/29 03:49:28;;;;;;;19.05;5.90;;;;;;;0.01;100.00;100519.16;4997533;28;20132;-82
2022/01/29 03:51:53;;;;;;;23.48;6.03;;;;;;;0.05;100.00;100514.09;4997538;28;20416;-82
2022/01/29 03:54:18;;;;;;;19.38;6.40;;;;;;;0.10;100.00;100515.00;4997245;28;20030;-82
2022/01/29 03:56:44;;;;;;;22.73;5.85;;;;;;;0.10;100.00;100498.75;5014890;28;20482;-82
2022/01/29 03:59:09;;;;;;;29.65;6.72;;;;;;;0.22;100.00;100501.44;4996891;28;20029;-82
2022/01/29 04:01:35;;;;;;;21.17;5.80;;;;;;;0.28;100.00;100500.63;5014941;28;20507;-82
2022/01/29 04:04:00;;;;;;;19.02;5.63;;;;;;;0.39;100.00;100505.00;4996899;28;20030;-82
2022/01/29 04:06:26;;;;;;;21.77;5.97;;;;;;;0.35;100.00;100482.75;5014329;28;20060;-82
2022/01/29 04:08:52;;;;;;;21.45;6.22;;;;;;;0.33;100.00;100457.97;4996761;28;20025;-81
2022/01/29 04:11:18;;;;;;;23.42;5.93;;;;;;;0.53;100.00;100468.38;4996458;28;20026;-82
2022/01/29 04:13:47;;;;;;;20.75;5.70;;;;;;;0.46;100.00;100463.22;4996641;28;20025;-82
2022/01/29 04:16:15;;;;;;;20.25;5.15;;;;;;;0.64;100.00;100475.28;4996722;28;20069;-81
2022/01/29 04:18:41;;;;;;;23.50;6.93;;;;;;;0.70;100.00;100477.88;5014595;28;20033;-81
2022/01/29 04:21:06;;;;;;;20.33;5.22;;;;;;;0.72;100.00;100471.06;5014235;28;20041;-81
2022/01/29 04:23:33;;;;;;;19.15;5.43;;;;;;;0.73;100.00;100453.97;5014256;28;20081;-81
2022/01/29 04:26:00;;;;;;;25.48;6.50;;;;;;;0.77;100.00;100449.75;5014127;28;20105;-81
2022/01/29 04:28:30;;;;;;;21.65;5.97;;;;;;;0.85;100.00;100454.06;4996439;28;20030;-81
2022/01/29 04:31:08;;;;;;;18.20;5.55;;;;;;;0.85;100.00;100448.06;4996610;28;20539;-81
2022/01/29 04:33:33;;;;;;;22.75;6.70;;;;;;;0.84;100.00;100436.94;4996571;28;20087;-81
2022/01/29 04:36:01;;;;;;;25.58;5.68;;;;;;;0.98;100.00;100445.56;4996249;28;20401;-82
2022/01/29 04:38:29;;;;;;;20.63;6.03;;;;;;;0.98;100.00;100437.88;5013788;28;20370;-81
2022/01/29 04:40:55;;;;;;;23.73;6.05;;;;;;;1.02;100.00;100433.63;4996272;28;20127;-81
2022/01/29 04:43:21;;;;;;;19.05;4.85;;;;;;;0.86;100.00;100416.44;4996135;28;20656;-81
2022/01/29 04:45:47;;;;;;;22.67;5.90;;;;;;;0.94;100.00;100441.28;5014223;28;20117;-81
2022/01/29 04:48:13;;;;;;;22.42;6.00;;;;;;;0.97;100.00;100441.31;4996050;28;20112;-81
2022/01/29 04:50:39;;;;;;;20.45;5.57;;;;;;;0.95;100.00;100434.44;4996018;28;20030;-81
2022/01/29 04:53:05;;;;;;;15.00;4.68;;;;;;;0.85;100.00;100428.41;4995614;28;20025;-81
2022/01/29 04:55:32;;;;;;;21.48;5.50;;;;;;;0.88;100.00;100432.69;5012593;28;20496;-82
2022/01/29 04:57:57;;;;;;;22.67;5.70;;;;;;;0.88;100.00;100435.25;4996111;28;20563;-82
2022/01/29 05:00:23;;;;;;;14.10;5.05;;;;;;;0.89;100.00;100427.59;4995814;28;20034;-81
2022/01/29 05:02:49;;;;;;;26.50;7.00;;;;;;;0.88;100.00;100414.72;4995926;28;20512;-81
2022/01/29 05:05:16;;;;;;;19.27;5.85;;;;;;;0.90;100.00;100419.03;5013173;28;20104;-81
2022/01/29 05:07:41;;;;;;;20.40;6.80;;;;;;;0.80;100.00;100401.91;4995637;28;20358;-81
2022/01/29 05:10:07;;;;;;;30.83;7.00;;;;;;;0.84;100.00;100413.00;4995382;28;20184;-81
2022/01/29 05:12:48;;;;;;;24.58;6.80;;;;;;;0.84;100.00;100411.28;4995756;28;20053;-81
2022/01/29 05:28:55;;;;;;;17.88;5.68;;;;;;;0.95;100.00;100385.72;4952482;29;20050;-81
2022/01/29 05:31:21;;;;;;;11.77;4.85;;;;;;;0.96;100.00;100377.16;4936064;29;20034;-82
2022/01/29 05:33:47;;;;;;;20.30;5.65;;;;;;;0.96;100.00;100361.75;4952035;29;20039;-81
2022/01/29 05:36:12;;;;;;;16.42;5.20;;;;;;;0.93;100.00;100365.19;4935715;29;20054;-81
2022/01/29 05:38:38;;;;;;;17.70;5.78;;;;;;;0.98;100.00;100366.06;4952179;29;20130;-81
2022/01/29 05:41:03;;;;;;;22.27;6.75;;;;;;;0.97;100.00;100354.09;4951927;29;20518;-81
2022/01/29 05:43:29;;;;;;;19.75;5.43;;;;;;;0.95;100.00;100344.66;4951524;29;20061;-81
2022/01/29 05:45:55;;;;;;;16.27;5.43;;;;;;;1.01;100.00;100352.38;4936014;29;20042;-81
2022/01/29 05:48:21;;;;;;;16.33;5.93;;;;;;;1.01;100.00;100342.13;4951431;29;20035;-81
2022/01/29 05:50:46;;;;;;;19.63;6.45;;;;;;;1.00;100.00;100337.84;4951777;28;20114;-81
2022/01/29 05:53:12;;;;;;;15.95;5.57;;;;;;;0.96;100.00;100326.72;4951656;29;20038;-81
2022/01/29 05:55:37;;;;;;;14.18;4.88;;;;;;;0.99;100.00;100326.72;4983482;28;20404;-81
2022/01/29 05:58:02;;;;;;;21.73;6.22;;;;;;;1.02;100.00;100317.34;4994876;28;20032;-81
2022/01/29 06:00:28;;;;;;;18.05;5.63;;;;;;;0.88;100.00;100294.19;4994662;28;20124;-81
2022/01/29 06:03:01;;;;;;;20.48;5.70;;;;;;;0.98;100.00;100308.78;4994618;28;20429;-81
2022/01/29 06:05:27;;;;;;;17.13;6.03;;;;;;;0.87;100.00;100277.97;5005879;28;20555;-82
2022/01/29 06:07:53;;;;;;;18.65;5.75;;;;;;;0.96;100.00;100282.25;5032105;28;20029;-81
2022/01/29 06:10:19;;;;;;;16.42;5.25;;;;;;;0.97;100.00;100282.28;5030296;28;20025;-81
2022/01/29 06:12:45;;;;;;;23.73;6.00;;;;;;;0.96;100.00;100285.66;5032027;28;20053;-81
2022/01/29 06:15:11;;;;;;;19.40;5.88;;;;;;;1.05;100.00;100299.38;5032071;28;20064;-81
2022/01/29 06:17:38;;;;;;;20.38;5.95;;;;;;;1.02;100.00;100292.53;5032600;28;20053;-80
2022/01/29 06:20:04;;;;;;;23.80;6.43;;;;;;;1.08;100.00;100294.25;5050236;28;20063;-80
2022/01/29 06:22:29;;;;;;;20.45;5.32;;;;;;;1.02;100.00;100272.03;5050154;28;20044;-80
2022/01/29 06:24:54;;;;;;;20.88;6.55;;;;;;;1.06;100.00;100270.34;5051757;28;20033;-80
2022/01/29 06:27:20;;;;;;;23.52;7.53;;;;;;;1.06;100.00;100263.47;5051803;28;20415;-80
2022/01/29 06:29:45;;;;;;;23.27;7.70;;;;;;;1.20;100.00;100287.44;5048442;28;20065;-80
2022/01/29 06:32:10;;;;;;;25.75;8.52;;;;;;;1.22;100.00;100278.06;5050164;28;20044;-80
2022/01/29 06:34:36;;;;;;;34.65;9.07;;;;;;;1.12;100.00;100242.09;5050456;28;20037;-80
2022/01/29 06:37:01;;;;;;;39.83;11.88;;;;;;;1.29;100.00;100258.38;5051469;28;20512;-80
2022/01/29 06:39:26;;;;;;;39.40;13.95;;;;;;;1.31;100.00;100254.13;5050105;28;20029;-80
2022/01/29 06:41:52;;;;;;;51.60;17.50;;;;;;;1.35;100.00;100253.25;5050526;28;20021;-80
2022/01/29 06:44:17;;;;;;;46.72;14.68;;;;;;;1.41;100.00;100253.25;5051585;28;20029;-80
2022/01/29 06:46:43;;;;;;;34.17;12.00;;;;;;;1.42;100.00;100236.97;5051744;28;20025;-80
2022/01/29 06:49:08;;;;;;;33.90;9.93;;;;;;;1.38;100.00;100227.56;5050453;28;20036;-80
2022/01/29 06:51:33;;;;;;;21.90;8.93;;;;;;;1.53;100.00;100244.69;5051754;28;20029;-80
2022/01/29 06:53:59;;;;;;;27.10;8.98;;;;;;;1.48;100.00;100231.88;5050194;28;20068;-80
2022/01/29 06:56:24;;;;;;;25.77;8.38;;;;;;;1.57;100.00;100230.16;5048960;28;20389;-80
2022/01/29 06:58:49;;;;;;;19.60;8.80;;;;;;;1.63;100.00;100230.97;5050448;28;20155;-80
2022/01/29 07:01:15;;;;;;;19.38;7.22;;;;;;;1.63;100.00;100236.13;5047773;28;20136;-80
2022/01/29 07:03:40;;;;;;;24.67;8.75;;;;;;;1.69;100.00;100233.56;5049040;28;20041;-80
2022/01/29 07:06:06;;;;;;;24.55;8.48;;;;;;;1.68;100.00;100213.00;5032086;28;20041;-80
2022/01/29 07:08:34;;;;;;;24.20;8.02;;;;;;;1.70;100.00;100217.28;5030187;28;20032;-80
2022/01/29 07:10:59;;;;;;;29.00;7.80;;;;;;;1.83;100.00;100235.25;5048949;28;20534;-80
2022/01/29 07:13:25;;;;;;;23.48;7.30;;;;;;;1.77;100.00;100213.00;5031968;28;20048;-80
2022/01/29 07:15:52;;;;;;;22.20;7.03;;;;;;;1.81;100.00;100206.97;5047390;28;20462;-80
2022/01/29 07:18:17;;;;;;;20.52;7.32;;;;;;;1.82;100.00;100205.28;5051142;28;20100;-80
2022/01/29 07:20:42;;;;;;;21.75;7.50;;;;;;;1.92;100.00;100219.81;5050817;28;20124;-80
2022/01/29 07:23:08;;;;;;;22.60;8.15;;;;;;;1.83;100.00;100200.13;5052385;28;20102;-79
2022/01/29 07:25:33;;;;;;;31.70;8.57;;;;;;;1.93;100.00;100206.94;5035467;28;20532;-80
2022/01/29 07:27:59;;;;;;;29.15;8.10;;;;;;;2.01;100.00;100209.50;5035661;28;20048;-80
2022/01/29 07:30:25;;;;;;;18.00;7.13;;;;;;;1.96;100.00;100195.81;5052210;28;20142;-80
2022/01/29 07:32:50;;;;;;;23.58;8.05;;;;;;;2.09;100.00;100215.47;5048186;28;20040;-79
2022/01/29 07:35:15;;;;;;;27.23;8.63;;;;;;;2.06;100.00;100212.06;5053277;28;20485;-80
2022/01/29 07:37:41;;;;;;;27.23;7.70;;;;;;;2.05;100.00;100213.78;5053478;28;20417;-80
2022/01/29 07:40:07;;;;;;;19.60;7.53;;;;;;;2.04;100.00;100213.78;5051830;28;20028;-80
2022/01/29 07:42:32;;;;;;;24.02;9.55;;;;;;;2.00;100.00;100213.78;5053281;28;20032;-80
2022/01/29 07:44:58;;;;;;;29.58;8.63;;;;;;;2.00;100.00;100205.22;5054902;28;20480;-80
2022/01/29 07:47:23;;;;;;;26.55;9.02;;;;;;;1.95;100.00;100204.41;5053224;28;20063;-80
2022/01/29 07:49:48;;;;;;;27.65;8.70;;;;;;;2.00;100.00;100208.66;5054699;28;20040;-80
2022/01/29 07:52:14;;;;;;;21.85;8.35;;;;;;;1.95;100.00;100194.13;5054457;28;20104;-81
2022/01/29 07:54:39;;;;;;;28.05;9.32;;;;;;;2.04;100.00;100203.50;5054513;28;20064;-80
2022/01/29 07:57:05;;;;;;;32.88;11.48;;;;;;;1.92;100.00;100174.44;5054843;28;20466;-80
2022/01/29 07:59:30;;;;;;;33.53;13.38;;;;;;;2.03;100.00;100181.25;5054439;28;20036;-80
2022/01/29 08:01:55;;;;;;;37.17;14.07;;;;;;;2.03;100.00;100170.97;5053207;28;20384;-80
2022/01/29 08:04:24;;;;;;;34.40;12.77;;;;;;;2.01;100.00;100155.56;5052879;28;20384;-80
2022/01/29 08:06:51;;;;;;;32.65;12.32;;;;;;;2.14;100.00;100164.91;5052928;28;20151;-80
2022/01/29 08:09:16;;;;;;;33.13;13.73;;;;;;;2.13;100.00;100157.22;5052710;28;20530;-80
2022/01/29 08:11:41;;;;;;;43.20;16.48;;;;;;;2.06;100.00;100137.53;5054554;28;20029;-80
2022/01/29 08:14:07;;;;;;;38.97;15.77;;;;;;;2.13;100.00;100150.38;5054402;28;20637;-80
2022/01/29 08:16:32;;;;;;;46.13;18.52;;;;;;;2.13;100.00;100139.25;5053905;28;20435;-80
2022/01/29 08:18:58;;;;;;;58.03;25.02;;;;;;;2.16;100.00;100140.09;5054046;28;20416;-79
2022/01/29 08:21:24;;;;;;;58.08;21.95;;;;;;;2.20;100.00;100143.50;5052531;28;20021;-80
2022/01/29 08:23:49;;;;;;;47.55;21.45;;;;;;;2.23;100.00;100146.91;5053844;28;20472;-78
2022/01/29 08:26:16;;;;;;;56.78;23.02;;;;;;;2.21;100.00;100133.19;5054009;28;20419;-78
2022/01/29 08:28:42;;;;;;;54.35;20.08;;;;;;;2.17;100.00;100122.94;5053998;28;20451;-79
2022/01/29 08:31:07;;;;;;;42.75;17.55;;;;;;;2.17;100.00;100120.38;5052657;28;20051;-78
2022/01/29 08:33:33;;;;;;;37.90;15.15;;;;;;;2.15;100.00;100119.50;5052389;28;20025;-79
2022/01/29 08:35:59;;;;;;;41.22;17.90;;;;;;;2.14;100.00;100110.97;5049738;28;20049;-79
2022/01/29 08:38:26;;;;;;;49.83;20.80;;;;;;;2.13;100.00;100103.28;5050944;28;20045;-79
2022/01/29 08:40:52;;;;;;;49.22;20.33;;;;;;;2.13;100.00;100098.13;5034484;28;20033;-79
2022/01/29 08:43:20;;;;;;;49.03;22.17;;;;;;;2.24;100.00;100104.06;5050888;28;20160;-78
2022/01/29 08:45:46;;;;;;;45.97;20.20;;;;;;;2.25;100.00;100098.06;5051435;28;20445;-78
2022/01/29 08:48:11;;;;;;;45.92;18.98;;;;;;;2.25;100.00;100090.34;5051073;28;20049;-78
2022/01/29 08:50:36;;;;;;;42.30;18.98;;;;;;;2.31;100.00;100079.19;5048836;28;20037;-78
2022/01/29 08:53:02;;;;;;;38.65;18.08;;;;;;;2.36;100.00;100085.13;5002369;28;20038;-78
2022/01/29 08:55:36;;;;;;;39.45;18.60;;;;;;;2.29;100.00;100066.34;4994598;28;20096;-78
2022/01/29 08:58:06;;;;;;;30.15;14.40;;;;;;;2.27;100.00;100062.06;5011213;28;20049;-79
2022/01/29 09:00:32;;;;;;;24.48;10.60;;;;;;;2.40;100.00;100080.00;5010798;28;20036;-79
2022/01/29 09:02:58;;;;;;;21.40;10.23;;;;;;;2.37;100.00;100085.16;4994617;28;20524;-79
2022/01/29 09:05:23;;;;;;;22.67;12.75;;;;;;;2.37;100.00;100080.00;5010805;28;20050;-79
2022/01/29 09:07:51;;;;;;;23.92;14.38;;;;;;;2.40;100.00;100073.97;5027895;28;20050;-79
2022/01/29 09:10:17;;;;;;;26.92;13.10;;;;;;;2.40;100.00;100061.13;5013973;28;20033;-79
2022/01/29 09:12:42;;;;;;;27.30;13.65;;;;;;;2.31;100.00;100044.03;5014031;28;20053;-79
2022/01/29 09:15:08;;;;;;;21.17;11.50;;;;;;;2.37;100.00;100045.75;5014184;28;20030;-79
2022/01/29 09:17:35;;;;;;;26.42;12.57;;;;;;;2.41;100.00;100044.84;5030318;28;20382;-79
2022/01/29 09:20:01;;;;;;;25.63;14.68;;;;;;;2.38;100.00;100030.28;5013842;28;20075;-79
2022/01/29 09:22:27;;;;;;;26.80;14.80;;;;;;;2.46;100.00;100049.09;5030189;28;20033;-79
2022/01/29 09:24:52;;;;;;;30.05;12.15;;;;;;;2.44;100.00;100042.22;5049455;28;20043;-79
2022/01/29 09:27:17;;;;;;;20.73;10.50;;;;;;;2.29;100.00;100020.09;5045797;28;20025;-79
2022/01/29 09:29:43;;;;;;;22.88;10.23;;;;;;;2.39;100.00;100031.13;5031430;28;20025;-79
2022/01/29 09:32:10;;;;;;;25.65;10.13;;;;;;;2.28;100.00;100017.53;5031626;28;20120;-79
2022/01/29 09:34:36;;;;;;;27.98;11.45;;;;;;;2.39;100.00;100031.13;5032349;28;20108;-78
2022/01/29 09:37:02;;;;;;;23.98;10.50;;;;;;;2.25;100.00;100008.13;5026504;28;20121;-79
2022/01/29 09:39:29;;;;;;;24.05;10.95;;;;;;;2.31;100.00;100020.06;5032243;28;20025;-78
2022/01/29 09:41:56;;;;;;;21.52;11.20;;;;;;;2.32;100.00;100024.31;5032338;28;20036;-79
2022/01/29 09:44:25;;;;;;;29.55;13.98;;;;;;;2.19;100.00;100006.44;5032490;28;20056;-79
2022/01/29 09:46:51;;;;;;;22.33;10.18;;;;;;;2.28;100.00;100007.25;5032362;28;20116;-78
2022/01/29 09:49:17;;;;;;;22.42;10.30;;;;;;;2.29;100.00;100007.22;5030725;28;20392;-78
2022/01/29 09:51:43;;;;;;;25.65;14.05;;;;;;;2.12;100.00;99976.50;5031033;28;20021;-78
2022/01/29 09:54:08;;;;;;;41.35;22.77;;;;;;;2.25;100.00;100002.97;5031168;28;20083;-78
2022/01/29 09:56:34;;;;;;;33.38;19.00;;;;;;;2.28;100.00;100005.53;5032082;28;20036;-78
2022/01/29 09:58:59;;;;;;;32.38;17.38;;;;;;;2.20;100.00;99994.44;5032521;28;20040;-79
2022/01/29 10:01:25;;;;;;;26.25;12.30;;;;;;;2.03;100.00;99965.47;5030580;28;20029;-77
2022/01/29 10:04:08;;;;;;;21.15;10.73;;;;;;;2.18;100.00;99985.88;5034338;28;20037;-78
2022/01/29 10:06:35;;;;;;;27.15;14.20;;;;;;;2.16;100.00;99983.34;5035190;28;20072;-78
2022/01/29 10:09:09;;;;;;;29.20;13.10;;;;;;;2.15;100.00;99980.75;5014429;28;20025;-79
2022/01/29 10:11:35;;;;;;;42.65;20.08;;;;;;;2.13;100.00;99978.22;5032216;28;20091;-79
2022/01/29 10:14:02;;;;;;;49.95;26.65;;;;;;;2.11;100.00;99964.53;5014241;28;20026;-79
2022/01/29 10:16:30;;;;;;;54.65;28.55;;;;;;;2.09;100.00;99960.25;5031957;28;20477;-79
2022/01/29 10:19:07;;;;;;;46.17;19.42;;;;;;;2.06;100.00;99953.41;5014488;28;20401;-78
2022/01/29 10:21:35;;;;;;;38.55;18.92;;;;;;;1.95;100.00;99932.94;5014101;28;20054;-78
2022/01/29 10:24:12;;;;;;;56.13;27.92;;;;;;;2.01;100.00;99942.31;5009931;28;20022;-78
2022/01/29 10:26:43;;;;;;;49.80;25.35;;;;;;;1.98;100.00;99939.78;5003037;28;20029;-79
2022/01/29 10:29:20;;;;;;;56.63;30.75;;;;;;;1.96;100.00;99937.22;5014384;28;20491;-79
2022/01/29 10:31:53;;;;;;;64.53;34.88;;;;;;;1.89;100.00;99924.44;5014159;28;20507;-79
2022/01/29 10:34:31;;;;;;;45.58;25.90;;;;;;;1.86;100.00;99921.91;5013961;28;20450;-79
2022/01/29 10:37:16;;;;;;;44.17;23.38;;;;;;;1.97;100.00;99938.06;5013823;28;20025;-79
2022/01/29 10:39:52;;;;;;;40.15;22.33;;;;;;;1.90;100.00;99919.31;5014274;28;20021;-79
2022/01/29 10:42:20;;;;;;;36.75;22.65;;;;;;;1.92;100.00;99920.13;5013834;28;20065;-79
2022/01/29 10:44:48;;;;;;;35.72;22.70;;;;;;;1.88;100.00;99915.88;5014110;28;20026;-79
2022/01/29 10:47:14;;;;;;;35.30;21.65;;;;;;;1.86;100.00;99904.78;5013979;28;20120;-78
2022/01/29 10:49:53;;;;;;;25.80;16.65;;;;;;;1.81;100.00;99887.66;5013756;28;20026;-79
2022/01/29 10:52:26;;;;;;;32.25;18.95;;;;;;;1.91;100.00;99895.31;5014781;28;20053;-79
2022/01/29 10:54:59;;;;;;;28.65;16.98;;;;;;;1.93;100.00;99892.72;5035819;28;20026;-79
2022/01/29 10:57:48;;;;;;;24.70;16.95;;;;;;;1.78;100.00;99868.03;5035498;28;20081;-79
2022/01/29 11:00:24;;;;;;;26.80;17.15;;;;;;;1.90;100.00;99882.50;5018014;28;20541;-80
2022/01/29 11:02:53;;;;;;;20.40;13.13;;;;;;;1.82;100.00;99874.00;5017830;28;20029;-79
2022/01/29 11:05:19;;;;;;;21.67;14.40;;;;;;;1.78;100.00;99865.44;4986311;28;20128;-79
2022/01/29 11:07:50;;;;;;;38.00;27.58;;;;;;;1.83;100.00;99866.25;4997023;28;20436;-79
2022/01/29 11:10:17;;;;;;;34.42;23.70;;;;;;;1.79;100.00;99849.19;4996598;28;20044;-78
2022/01/29 11:12:45;;;;;;;33.53;24.98;;;;;;;1.88;100.00;99861.09;4996919;28;20034;-79
2022/01/29 11:15:11;;;;;;;28.55;16.88;;;;;;;1.84;100.00;99836.28;4996683;28;20040;-79
2022/01/29 11:17:36;;;;;;;23.50;17.55;;;;;;;1.85;100.00;99838.84;4987114;28;20045;-79
2022/01/29 11:20:05;;;;;;;18.55;12.07;;;;;;;1.81;100.00;99821.75;4996117;28;20077;-78
2022/01/29 11:22:40;;;;;;;18.55;13.93;;;;;;;1.90;100.00;99837.09;4976711;28;20077;-79
2022/01/29 11:25:30;;;;;;;18.15;12.95;;;;;;;1.85;100.00;99826.00;4954307;29;20039;-79
2022/01/29 11:28:13;;;;;;;20.63;13.07;;;;;;;1.83;100.00;99807.19;4954408;29;20047;-79